createdAt,value
2022-07-29T00:00:56.890Z,19.63
2022-07-29T00:03:23.477Z,19.62
2022-07-29T00:05:50.049Z,19.59
2022-07-29T00:08:16.577Z,19.57
2022-07-29T00:10:43.333Z,19.53
2022-07-29T00:13:09.773Z,19.50
2022-07-29T00:15:36.226Z,19.47
2022-07-29T00:18:02.699Z,19.43
2022-07-29T00:20:29.214Z,19.44
2022-07-29T00:22:55.677Z,19.38
2022-07-29T00:25:22.112Z,19.37
2022-07-29T00:27:48.637Z,19.36
2022-07-29T00:30:15.298Z,19.35
2022-07-29T00:32:41.942Z,19.34
2022-07-29T00:35:27.514Z,19.30
2022-07-29T00:37:53.977Z,19.27
2022-07-29T00:40:23.514Z,19.23
2022-07-29T00:42:52.809Z,19.20
2022-07-29T00:45:19.447Z,19.19
2022-07-29T00:47:46.296Z,19.16
2022-07-29T00:50:13.663Z,19.14
2022-07-29T00:52:41.205Z,19.13
2022-07-29T00:55:10.734Z,19.09
2022-07-29T00:57:37.908Z,19.05
2022-07-29T01:00:10.540Z,19.02
2022-07-29T01:02:37.044Z,18.98
2022-07-29T01:05:07.352Z,18.93
2022-07-29T01:07:36.177Z,18.91
2022-07-29T01:10:04.316Z,18.88
2022-07-29T01:12:34.271Z,18.83
2022-07-29T01:15:05.448Z,18.79
2022-07-29T01:17:52.671Z,18.76
2022-07-29T01:21:00.369Z,18.72
2022-07-29T01:23:26.693Z,18.70
2022-07-29T01:26:09.157Z,18.67
2022-07-29T01:28:59.650Z,18.65
2022-07-29T01:31:32.987Z,18.61
2022-07-29T01:34:05.486Z,18.59
2022-07-29T01:36:43.842Z,18.53
2022-07-29T01:39:17.586Z,18.46
2022-07-29T01:41:53.299Z,18.42
2022-07-29T01:44:21.544Z,18.33
2022-07-29T01:46:55.263Z,18.32
2022-07-29T01:49:26.867Z,18.28
2022-07-29T01:52:09.762Z,18.22
2022-07-29T01:54:56.471Z,18.12
2022-07-29T01:57:27.585Z,18.08
2022-07-29T01:59:55.237Z,18.04
2022-07-29T02:02:22.088Z,17.98
2022-07-29T02:04:50.687Z,17.96
2022-07-29T02:07:19.556Z,17.93
2022-07-29T02:09:46.875Z,17.94
2022-07-29T02:12:14.373Z,17.91
2022-07-29T02:14:44.898Z,17.87
2022-07-29T02:17:11.981Z,17.84
2022-07-29T02:19:39.016Z,17.81
2022-07-29T02:22:06.446Z,17.81
2022-07-29T02:24:34.443Z,17.81
2022-07-29T02:27:01.874Z,17.80
2022-07-29T02:29:29.679Z,17.81
2022-07-29T02:31:58.150Z,17.83
2022-07-29T02:34:25.597Z,17.83
2022-07-29T02:36:53.418Z,17.83
2022-07-29T02:39:20.606Z,17.84
2022-07-29T02:41:53.005Z,17.82
2022-07-29T02:44:21.182Z,17.81
2022-07-29T02:46:53.089Z,17.81
2022-07-29T02:49:44.039Z,17.81
2022-07-29T02:52:24.375Z,17.79
2022-07-29T02:55:01.246Z,17.77
2022-07-29T02:58:12.598Z,17.76
2022-07-29T03:00:40.224Z,17.75
2022-07-29T03:03:16.626Z,17.75
2022-07-29T03:05:43.193Z,17.73
2022-07-29T03:08:12.010Z,17.72
2022-07-29T03:10:40.282Z,17.71
2022-07-29T03:13:07.524Z,17.70
2022-07-29T03:15:34.225Z,17.70
2022-07-29T03:18:00.922Z,17.68
2022-07-29T03:20:27.481Z,17.66
2022-07-29T03:22:53.986Z,17.64
2022-07-29T03:25:21.091Z,17.62
2022-07-29T03:27:48.957Z,17.62
2022-07-29T03:30:21.845Z,17.62
2022-07-29T03:32:49.887Z,17.61
2022-07-29T03:35:19.234Z,17.59
2022-07-29T03:37:46.177Z,17.59
2022-07-29T03:40:15.929Z,17.58
2022-07-29T03:42:43.440Z,17.57
2022-07-29T03:45:13.642Z,17.56
2022-07-29T03:47:50.940Z,17.53
2022-07-29T03:50:20.488Z,17.52
2022-07-29T03:52:48.153Z,17.53
2022-07-29T03:55:15.371Z,17.46
2022-07-29T03:57:42.843Z,17.46
2022-07-29T04:00:10.001Z,17.45
2022-07-29T04:02:37.730Z,17.46
2022-07-29T04:05:04.402Z,17.45
2022-07-29T04:07:30.848Z,17.46
2022-07-29T04:09:57.273Z,17.47
2022-07-29T04:12:23.920Z,17.46
2022-07-29T04:14:51.103Z,17.48
2022-07-29T04:17:17.869Z,17.41
2022-07-29T04:19:44.310Z,17.44
2022-07-29T04:22:10.755Z,17.46
2022-07-29T04:24:37.201Z,17.45
2022-07-29T04:27:03.648Z,17.47
2022-07-29T04:29:30.065Z,17.48
2022-07-29T04:31:56.506Z,17.50
2022-07-29T04:34:22.930Z,17.51
2022-07-29T04:36:54.512Z,17.54
2022-07-29T04:39:23.203Z,17.56
2022-07-29T04:41:51.070Z,17.58
2022-07-29T04:44:19.654Z,17.58
2022-07-29T04:46:46.715Z,17.61
2022-07-29T04:49:14.197Z,17.63
2022-07-29T04:51:40.861Z,17.64
2022-07-29T04:54:07.308Z,17.63
2022-07-29T04:56:33.765Z,17.61
2022-07-29T04:59:00.225Z,17.61
2022-07-29T05:01:26.717Z,17.62
2022-07-29T05:03:58.351Z,17.63
2022-07-29T05:06:26.863Z,17.64
2022-07-29T05:08:53.499Z,17.67
2022-07-29T05:11:22.418Z,17.72
2022-07-29T05:13:49.666Z,17.76
2022-07-29T05:16:16.170Z,17.81
2022-07-29T05:18:43.080Z,17.87
2022-07-29T05:21:09.697Z,17.94
2022-07-29T05:23:36.571Z,18.00
2022-07-29T05:26:03.067Z,18.08
2022-07-29T05:28:29.623Z,18.15
2022-07-29T05:30:56.134Z,18.22
2022-07-29T05:33:34.646Z,18.29
2022-07-29T05:36:06.400Z,18.36
2022-07-29T05:38:32.892Z,18.41
2022-07-29T05:41:00.059Z,18.47
2022-07-29T05:43:27.921Z,18.51
2022-07-29T05:45:54.450Z,18.60
2022-07-29T05:48:20.932Z,18.68
2022-07-29T05:50:47.402Z,18.75
2022-07-29T05:53:19.118Z,18.83
2022-07-29T05:55:47.849Z,18.86
2022-07-29T05:58:14.321Z,18.88
2022-07-29T06:00:40.990Z,18.89
2022-07-29T06:03:07.481Z,18.93
2022-07-29T06:05:33.947Z,19.00
2022-07-29T06:08:00.383Z,19.03
2022-07-29T06:10:27.747Z,19.06
2022-07-29T06:12:54.549Z,19.12
2022-07-29T06:15:21.011Z,19.15
2022-07-29T06:17:58.976Z,19.11
2022-07-29T06:20:27.709Z,19.17
2022-07-29T06:22:54.155Z,19.11
2022-07-29T06:25:20.649Z,19.19
2022-07-29T06:27:47.085Z,19.24
2022-07-29T06:30:13.715Z,19.35
2022-07-29T06:32:43.264Z,19.36
2022-07-29T06:35:37.649Z,19.43
2022-07-29T06:37:56.684Z,19.48
2022-07-29T06:40:44.800Z,19.53
2022-07-29T06:43:11.763Z,19.61
2022-07-29T06:45:42.123Z,19.60
2022-07-29T06:48:09.014Z,19.57
2022-07-29T06:50:35.571Z,19.53
2022-07-29T06:53:02.037Z,19.63
2022-07-29T06:55:28.585Z,19.67
2022-07-29T06:57:55.042Z,19.74
2022-07-29T07:00:21.528Z,19.76
2022-07-29T07:02:48.048Z,19.80
2022-07-29T07:05:14.581Z,19.89
2022-07-29T07:07:41.047Z,19.95
2022-07-29T07:10:07.851Z,19.98
2022-07-29T07:12:34.621Z,20.00
2022-07-29T07:15:01.106Z,20.03
2022-07-29T07:17:27.557Z,20.00
2022-07-29T07:19:53.993Z,20.04
2022-07-29T07:22:20.439Z,20.05
2022-07-29T07:24:46.874Z,20.08
2022-07-29T07:27:13.397Z,20.13
2022-07-29T07:29:42.040Z,20.16
2022-07-29T07:32:10.796Z,20.16
2022-07-29T07:34:38.859Z,20.21
2022-07-29T07:37:05.983Z,20.29
2022-07-29T07:39:32.409Z,20.26
2022-07-29T07:41:58.886Z,20.29
2022-07-29T07:44:25.320Z,20.34
2022-07-29T07:46:51.796Z,20.33
2022-07-29T07:49:18.635Z,20.40
2022-07-29T07:51:50.587Z,20.43
2022-07-29T07:54:18.525Z,20.50
2022-07-29T07:56:49.897Z,20.55
2022-07-29T07:59:19.723Z,20.58
2022-07-29T08:01:55.072Z,20.57
2022-07-29T08:04:27.481Z,20.60
2022-07-29T08:06:55.600Z,20.65
2022-07-29T08:09:29.407Z,20.63
2022-07-29T08:11:57.716Z,20.71
2022-07-29T08:14:24.213Z,20.75
2022-07-29T08:16:50.768Z,20.71
2022-07-29T08:19:17.246Z,20.77
2022-07-29T08:21:43.799Z,20.73
2022-07-29T08:24:28.826Z,20.81
2022-07-29T08:26:55.307Z,20.75
2022-07-29T08:29:21.756Z,20.82
2022-07-29T08:31:48.437Z,20.88
2022-07-29T08:34:14.905Z,20.89
2022-07-29T08:36:41.378Z,20.93
2022-07-29T08:39:07.962Z,21.02
2022-07-29T08:41:34.518Z,21.07
2022-07-29T08:44:00.952Z,21.14
2022-07-29T08:46:27.408Z,21.19
2022-07-29T08:48:53.913Z,21.26
2022-07-29T08:51:21.176Z,21.26
2022-07-29T08:53:49.638Z,21.31
2022-07-29T08:56:18.928Z,21.36
2022-07-29T08:58:51.642Z,21.44
2022-07-29T09:01:23.460Z,21.48
2022-07-29T09:04:04.732Z,21.56
2022-07-29T09:06:34.157Z,21.52
2022-07-29T09:09:01.286Z,21.60
2022-07-29T09:11:27.942Z,21.67
2022-07-29T09:13:54.438Z,21.76
2022-07-29T09:16:43.845Z,21.84
2022-07-29T09:19:20.850Z,21.87
2022-07-29T09:21:59.490Z,21.80
2022-07-29T09:25:03.662Z,21.96
2022-07-29T09:27:30.162Z,22.00
2022-07-29T09:29:58.866Z,22.11
2022-07-29T09:32:25.564Z,22.15
2022-07-29T09:34:54.642Z,22.24
2022-07-29T09:37:29.460Z,22.26
2022-07-29T09:39:55.901Z,22.36
2022-07-29T09:42:30.086Z,22.33
2022-07-29T09:44:56.574Z,22.46
2022-07-29T09:47:26.791Z,22.53
2022-07-29T09:50:01.429Z,22.56
2022-07-29T09:52:29.467Z,22.63
2022-07-29T09:55:06.833Z,22.70
2022-07-29T09:57:33.270Z,22.82
2022-07-29T10:00:02.047Z,22.89
2022-07-29T10:02:33.621Z,22.99
2022-07-29T10:05:02.061Z,23.12
2022-07-29T10:07:51.870Z,23.18
2022-07-29T10:10:23.462Z,23.29
2022-07-29T10:13:06.944Z,23.33
2022-07-29T10:15:39.461Z,23.45
2022-07-29T10:18:07.183Z,23.55
2022-07-29T10:20:33.686Z,23.59
2022-07-29T10:23:00.176Z,23.68
2022-07-29T10:25:27.209Z,23.79
2022-07-29T10:27:54.759Z,23.86
2022-07-29T10:30:23.150Z,23.97
2022-07-29T10:33:16.665Z,24.11
2022-07-29T10:35:59.546Z,24.21
2022-07-29T10:38:47.223Z,24.30
2022-07-29T10:41:36.320Z,24.41
2022-07-29T10:44:17.368Z,24.43
2022-07-29T10:46:46.116Z,24.55
2022-07-29T10:49:15.645Z,24.61
2022-07-29T10:51:51.557Z,24.75
2022-07-29T10:54:39.638Z,24.89
2022-07-29T10:57:18.140Z,24.94
2022-07-29T10:59:46.390Z,25.10
2022-07-29T11:02:42.033Z,25.18
2022-07-29T11:05:18.801Z,25.29
2022-07-29T11:08:13.621Z,25.36
2022-07-29T11:10:47.103Z,25.43
2022-07-29T11:13:44.287Z,25.54
2022-07-29T11:16:10.812Z,25.62
2022-07-29T11:18:38.586Z,25.74
2022-07-29T11:21:54.114Z,25.78
2022-07-29T11:24:31.929Z,25.99
2022-07-29T11:27:20.024Z,26.14
2022-07-29T11:29:50.891Z,26.25
2022-07-29T11:32:23.155Z,26.38
2022-07-29T11:34:51.572Z,26.51
2022-07-29T11:37:20.031Z,26.60
2022-07-29T11:39:54.126Z,26.79
2022-07-29T11:42:32.043Z,26.82
2022-07-29T11:45:41.640Z,27.03
2022-07-29T11:48:29.012Z,27.14
2022-07-29T11:50:51.641Z,27.24
2022-07-29T11:53:18.529Z,27.43
2022-07-29T11:55:51.514Z,27.56
2022-07-29T11:58:23.006Z,27.67
2022-07-29T12:00:52.615Z,27.66
2022-07-29T12:03:34.191Z,27.67
2022-07-29T12:06:14.074Z,27.78
2022-07-29T12:08:43.593Z,27.74
2022-07-29T12:11:20.920Z,27.89
2022-07-29T12:13:49.539Z,27.93
2022-07-29T12:16:16.573Z,27.91
2022-07-29T12:19:02.104Z,28.04
2022-07-29T12:21:30.089Z,28.18
2022-07-29T12:24:03.419Z,28.18
2022-07-29T12:26:34.039Z,28.31
2022-07-29T12:29:02.487Z,28.40
2022-07-29T12:31:43.848Z,28.44
2022-07-29T12:34:12.672Z,28.65
2022-07-29T12:36:39.189Z,28.72
2022-07-29T12:39:05.730Z,28.78
2022-07-29T12:41:32.553Z,28.87
2022-07-29T12:43:59.085Z,28.90
2022-07-29T12:46:25.560Z,29.02
2022-07-29T12:48:57.480Z,29.06
2022-07-29T12:51:35.379Z,29.03
2022-07-29T12:54:14.394Z,28.94
2022-07-29T12:56:43.547Z,28.88
2022-07-29T12:59:18.536Z,28.89
2022-07-29T13:01:47.908Z,28.97
2022-07-29T13:04:27.365Z,28.99
2022-07-29T13:07:55.642Z,29.08
2022-07-29T13:10:15.750Z,29.11
2022-07-29T13:13:05.853Z,29.12
2022-07-29T13:15:33.532Z,29.19
2022-07-29T13:18:00.482Z,29.28
2022-07-29T13:20:30.488Z,29.38
2022-07-29T13:22:58.675Z,29.43
2022-07-29T13:25:30.115Z,29.46
2022-07-29T13:27:56.982Z,29.48
2022-07-29T13:30:24.150Z,29.50
2022-07-29T13:32:51.542Z,29.46
2022-07-29T13:35:18.667Z,29.51
2022-07-29T13:37:45.171Z,29.51
2022-07-29T13:40:12.295Z,29.61
2022-07-29T13:42:39.095Z,29.55
2022-07-29T13:45:07.452Z,29.61
2022-07-29T13:47:33.903Z,29.72
2022-07-29T13:50:01.846Z,29.75
2022-07-29T13:52:28.673Z,29.73
2022-07-29T13:54:55.114Z,29.76
2022-07-29T13:57:21.569Z,29.72
2022-07-29T13:59:53.437Z,29.71
2022-07-29T14:02:20.644Z,29.75
2022-07-29T14:04:47.119Z,29.81
2022-07-29T14:07:16.271Z,29.76
2022-07-29T14:09:43.084Z,29.77
2022-07-29T14:12:09.962Z,29.66
2022-07-29T14:14:37.418Z,29.60
2022-07-29T14:17:04.893Z,29.64
2022-07-29T14:19:32.948Z,29.66
2022-07-29T14:21:59.899Z,29.76
2022-07-29T14:24:26.756Z,29.73
2022-07-29T14:26:53.264Z,29.75
2022-07-29T14:29:19.881Z,29.73
2022-07-29T14:31:46.377Z,29.75
2022-07-29T14:34:12.943Z,29.75
2022-07-29T14:36:39.389Z,29.65
2022-07-29T14:39:05.808Z,29.65
2022-07-29T14:41:32.251Z,29.62
2022-07-29T14:44:01.472Z,29.75
2022-07-29T14:46:28.547Z,29.62
2022-07-29T14:48:55.073Z,29.67
2022-07-29T14:51:21.538Z,29.67
2022-07-29T14:53:48.030Z,29.77
2022-07-29T14:56:35.620Z,29.79
2022-07-29T14:59:00.898Z,29.79
2022-07-29T15:01:27.420Z,29.92
2022-07-29T15:03:57.972Z,29.98
2022-07-29T15:06:26.567Z,30.04
2022-07-29T15:08:53.154Z,30.06
2022-07-29T15:11:19.821Z,30.06
2022-07-29T15:13:46.284Z,30.06
2022-07-29T15:16:12.787Z,30.03
2022-07-29T15:18:39.291Z,29.91
2022-07-29T15:21:07.813Z,30.04
2022-07-29T15:23:37.024Z,29.96
2022-07-29T15:26:04.311Z,30.03
2022-07-29T15:28:30.825Z,30.03
2022-07-29T15:30:57.274Z,30.20
2022-07-29T15:33:24.100Z,30.17
2022-07-29T15:35:50.537Z,30.34
2022-07-29T15:38:17.574Z,30.38
2022-07-29T15:40:44.594Z,30.61
2022-07-29T15:43:11.050Z,30.59
2022-07-29T15:45:40.442Z,30.67
2022-07-29T15:48:08.891Z,30.79
2022-07-29T15:50:35.451Z,30.87
2022-07-29T15:53:02.033Z,30.93
2022-07-29T15:55:28.479Z,30.79
2022-07-29T15:58:00.014Z,30.77
2022-07-29T16:00:27.176Z,30.96
2022-07-29T16:02:53.628Z,30.91
2022-07-29T16:05:20.117Z,31.03
2022-07-29T16:07:46.618Z,30.84
2022-07-29T16:10:13.173Z,30.86
2022-07-29T16:12:39.607Z,30.87
2022-07-29T16:15:09.963Z,30.91
2022-07-29T16:17:37.814Z,31.00
2022-07-29T16:20:05.887Z,31.04
2022-07-29T16:22:32.449Z,31.18
2022-07-29T16:24:59.049Z,31.56
2022-07-29T16:27:35.583Z,31.53
2022-07-29T16:30:06.107Z,31.87
2022-07-29T16:32:32.560Z,32.97
2022-07-29T16:34:59.034Z,34.08
2022-07-29T16:37:25.551Z,34.07
2022-07-29T16:39:55.315Z,33.42
2022-07-29T16:42:44.242Z,33.84
2022-07-29T16:45:08.888Z,34.76
2022-07-29T16:47:35.979Z,36.21
2022-07-29T16:50:02.427Z,37.43
2022-07-29T16:52:28.875Z,38.04
2022-07-29T16:54:55.325Z,38.18
2022-07-29T16:57:21.977Z,38.85
2022-07-29T16:59:50.873Z,39.44
2022-07-29T17:02:17.636Z,39.19
2022-07-29T17:04:44.181Z,38.88
2022-07-29T17:07:10.660Z,38.67
2022-07-29T17:09:37.298Z,38.31
2022-07-29T17:12:04.071Z,38.21
2022-07-29T17:14:31.039Z,38.43
2022-07-29T17:17:02.241Z,38.49
2022-07-29T17:19:35.171Z,38.33
2022-07-29T17:22:10.463Z,37.79
2022-07-29T17:24:40.284Z,37.25
2022-07-29T17:27:07.566Z,36.71
2022-07-29T17:29:35.196Z,36.46
2022-07-29T17:32:01.822Z,35.97
2022-07-29T17:34:28.293Z,35.37
2022-07-29T17:36:54.778Z,34.67
2022-07-29T17:39:21.659Z,34.18
2022-07-29T17:41:48.108Z,33.86
2022-07-29T17:44:14.686Z,33.47
2022-07-29T17:46:41.260Z,33.19
2022-07-29T17:49:07.826Z,32.90
2022-07-29T17:51:34.340Z,32.48
2022-07-29T17:54:00.773Z,32.22
2022-07-29T17:56:27.211Z,32.01
2022-07-29T17:58:54.107Z,31.90
2022-07-29T18:01:20.923Z,31.67
2022-07-29T18:03:47.451Z,31.50
2022-07-29T18:06:13.921Z,31.37
2022-07-29T18:08:40.637Z,31.25
2022-07-29T18:11:07.158Z,31.06
2022-07-29T18:13:33.600Z,30.91
2022-07-29T18:16:00.642Z,30.81
2022-07-29T18:18:27.602Z,30.66
2022-07-29T18:20:55.192Z,30.43
2022-07-29T18:23:21.672Z,30.23
2022-07-29T18:25:48.128Z,30.17
2022-07-29T18:28:14.695Z,30.04
2022-07-29T18:30:41.703Z,29.92
2022-07-29T18:33:22.775Z,29.81
2022-07-29T18:35:51.639Z,29.72
2022-07-29T18:38:18.303Z,29.71
2022-07-29T18:40:45.755Z,29.53
2022-07-29T18:43:13.251Z,29.52
2022-07-29T18:45:39.799Z,29.39
2022-07-29T18:48:08.349Z,29.35
2022-07-29T18:50:39.703Z,29.18
2022-07-29T18:53:06.148Z,29.19
2022-07-29T18:55:32.663Z,29.13
2022-07-29T18:57:59.137Z,29.05
2022-07-29T19:00:26.353Z,29.03
2022-07-29T19:02:53.195Z,28.97
2022-07-29T19:05:19.870Z,28.89
2022-07-29T19:07:46.285Z,28.85
2022-07-29T19:10:13.540Z,28.77
2022-07-29T19:12:40.030Z,28.75
2022-07-29T19:15:08.066Z,28.69
2022-07-29T19:17:34.542Z,28.67
2022-07-29T19:20:01.003Z,28.62
2022-07-29T19:22:27.760Z,28.54
2022-07-29T19:24:54.205Z,28.44
2022-07-29T19:27:20.681Z,28.40
2022-07-29T19:29:47.169Z,28.35
2022-07-29T19:32:14.503Z,28.31
2022-07-29T19:35:10.237Z,28.24
2022-07-29T19:37:37.288Z,28.21
2022-07-29T19:40:04.618Z,28.18
2022-07-29T19:42:31.046Z,28.14
2022-07-29T19:44:57.617Z,28.11
2022-07-29T19:47:24.055Z,28.04
2022-07-29T19:49:50.504Z,28.00
2022-07-29T19:52:17.127Z,27.88
2022-07-29T19:54:43.587Z,27.86
2022-07-29T19:57:10.037Z,27.83
2022-07-29T19:59:36.487Z,27.80
2022-07-29T20:02:03.039Z,27.69
2022-07-29T20:04:29.572Z,27.69
2022-07-29T20:07:01.380Z,27.65
2022-07-29T20:09:28.402Z,27.65
2022-07-29T20:11:54.885Z,27.62
2022-07-29T20:14:21.760Z,27.58
2022-07-29T20:16:48.304Z,27.55
2022-07-29T20:19:14.802Z,27.51
2022-07-29T20:21:41.316Z,27.48
2022-07-29T20:24:08.309Z,27.42
2022-07-29T20:26:34.741Z,27.35
2022-07-29T20:29:01.562Z,27.28
2022-07-29T20:31:28.114Z,27.24
2022-07-29T20:33:54.572Z,27.19
2022-07-29T20:36:20.994Z,27.15
2022-07-29T20:38:47.449Z,27.11
2022-07-29T20:41:14.062Z,27.03
2022-07-29T20:43:40.898Z,26.97
2022-07-29T20:46:07.384Z,26.93
2022-07-29T20:48:33.865Z,26.92
2022-07-29T20:51:00.326Z,26.84
2022-07-29T20:53:27.286Z,26.81
2022-07-29T20:55:53.773Z,26.77
2022-07-29T20:58:20.901Z,26.72
2022-07-29T21:00:49.870Z,26.65
2022-07-29T21:03:18.182Z,26.58
2022-07-29T21:05:45.002Z,26.58
2022-07-29T21:08:11.472Z,26.57
2022-07-29T21:10:37.924Z,26.53
2022-07-29T21:13:04.373Z,26.52
2022-07-29T21:15:30.870Z,26.50
2022-07-29T21:18:05.886Z,26.45
2022-07-29T21:20:32.335Z,26.44
2022-07-29T21:22:58.791Z,26.41
2022-07-29T21:25:26.867Z,26.39
2022-07-29T21:28:12.012Z,26.36
2022-07-29T21:30:38.497Z,26.27
2022-07-29T21:33:05.008Z,26.26
2022-07-29T21:36:07.406Z,26.22
2022-07-29T21:38:18.864Z,26.18
2022-07-29T21:40:48.005Z,26.10
2022-07-29T21:43:15.071Z,26.09
2022-07-29T21:45:42.344Z,26.00
2022-07-29T21:48:08.793Z,26.01
2022-07-29T21:50:35.824Z,25.96
2022-07-29T21:53:02.294Z,25.96
2022-07-29T21:55:31.107Z,25.91
2022-07-29T21:57:58.950Z,25.88
2022-07-29T22:00:28.721Z,25.88
2022-07-29T22:02:55.416Z,25.88
2022-07-29T22:05:21.932Z,25.79
2022-07-29T22:07:54.681Z,25.79
2022-07-29T22:10:24.508Z,25.76
2022-07-29T22:12:52.168Z,25.74
2022-07-29T22:15:18.814Z,25.66
2022-07-29T22:17:45.346Z,25.66
2022-07-29T22:20:12.087Z,25.61
2022-07-29T22:22:38.873Z,25.57
2022-07-29T22:25:07.056Z,25.55
2022-07-29T22:27:33.903Z,25.56
2022-07-29T22:30:00.409Z,25.54
2022-07-29T22:32:26.932Z,25.43
2022-07-29T22:34:53.385Z,25.38
2022-07-29T22:37:19.846Z,25.41
2022-07-29T22:39:46.266Z,25.43
2022-07-29T22:42:12.715Z,25.43
2022-07-29T22:44:39.169Z,25.43
2022-07-29T22:47:05.747Z,25.42
2022-07-29T22:49:32.466Z,25.40
2022-07-29T22:52:00.145Z,25.39
2022-07-29T22:54:26.952Z,25.38
2022-07-29T22:56:53.538Z,25.31
2022-07-29T22:59:19.993Z,25.31
2022-07-29T23:01:46.492Z,25.31
2022-07-29T23:04:13.126Z,25.31
2022-07-29T23:06:39.724Z,25.29
2022-07-29T23:09:06.278Z,25.27
2022-07-29T23:11:32.704Z,25.27
2022-07-29T23:13:59.151Z,25.25
2022-07-29T23:16:25.998Z,25.23
2022-07-29T23:18:53.022Z,25.22
2022-07-29T23:21:20.823Z,25.21
2022-07-29T23:23:48.446Z,25.18
2022-07-29T23:26:16.774Z,25.16
2022-07-29T23:28:44.264Z,25.12
2022-07-29T23:31:11.069Z,25.10
2022-07-29T23:33:37.564Z,25.07
2022-07-29T23:36:04.062Z,25.04
2022-07-29T23:38:30.601Z,25.03
2022-07-29T23:40:58.521Z,24.99
2022-07-29T23:43:25.146Z,24.97
2022-07-29T23:45:51.606Z,24.97
2022-07-29T23:48:20.748Z,24.94
2022-07-29T23:50:47.190Z,24.87
2022-07-29T23:53:13.625Z,24.84
2022-07-29T23:55:40.068Z,24.78
2022-07-29T23:58:06.505Z,24.78
